RJOO/ITM METAR and TAF weather

Enter ICAO airport designator
Station Type Date Time Source
RJOO METAR 2021/02/25 01:00 UTC NOAA

RJOO 250100Z VRB03KT CAVOK 05/M03 Q1026


Station Type Date Time Source
RJOO Decoded METAR 2021/02/25 01:00 UTC NOAA

Osaka International Airport, Japan (RJOO) 34-47N 135-27E 15M
Feb 24, 2021 - 08:00 PM EST / 2021.02.25 0100 UTC
Wind: Variable at 3 MPH (3 KT):0
Visibility: greater than 7 mile(s):0
Temperature: 41 F (5 C)
Dew Point: 26 F (-3 C)
Relative Humidity: 56%
Pressure (altimeter): 30.30 in. Hg (1026 hPa)
ob: RJOO 250100Z VRB03KT CAVOK 05/M03 Q1026
cycle: 1

Station Type Date Time Source
RJOO TAF 2021/02/24 18:31 UTC NOAA

TAF RJOO 241706Z 2418/2600 34005KT 9999 FEW030
BECMG 2423/2501 08005KT
BECMG 2506/2509 32006KT

Example: see airport list